sensor_id;sensor_type;location;lat;lon;timestamp;P1;durP1;ratioP1;P2;durP2;ratioP2
3083;SDS011;1552;51.952;7.618;2023-02-28T00:01:25;7.43;;;4.40;;
3083;SDS011;1552;51.952;7.618;2023-02-28T00:03:52;9.43;;;4.60;;
3083;SDS011;1552;51.952;7.618;2023-02-28T00:06:18;8.60;;;4.67;;
3083;SDS011;1552;51.952;7.618;2023-02-28T00:08:45;8.10;;;4.67;;
3083;SDS011;1552;51.952;7.618;2023-02-28T00:11:13;8.77;;;4.57;;
3083;SDS011;1552;51.952;7.618;2023-02-28T00:13:40;6.83;;;4.80;;
3083;SDS011;1552;51.952;7.618;2023-02-28T00:16:08;13.53;;;5.40;;
3083;SDS011;1552;51.952;7.618;2023-02-28T00:18:36;9.53;;;5.27;;
3083;SDS011;1552;51.952;7.618;2023-02-28T00:21:03;11.80;;;4.97;;
3083;SDS011;1552;51.952;7.618;2023-02-28T00:23:30;8.23;;;5.27;;
3083;SDS011;1552;51.952;7.618;2023-02-28T00:25:56;7.20;;;5.30;;
3083;SDS011;1552;51.952;7.618;2023-02-28T00:28:22;7.93;;;4.90;;
3083;SDS011;1552;51.952;7.618;2023-02-28T00:30:49;10.13;;;5.20;;
3083;SDS011;1552;51.952;7.618;2023-02-28T00:33:15;9.97;;;5.63;;
3083;SDS011;1552;51.952;7.618;2023-02-28T00:35:43;10.20;;;5.43;;
3083;SDS011;1552;51.952;7.618;2023-02-28T00:38:11;8.27;;;5.07;;
3083;SDS011;1552;51.952;7.618;2023-02-28T00:40:37;13.27;;;5.90;;
3083;SDS011;1552;51.952;7.618;2023-02-28T00:43:03;8.83;;;5.40;;
3083;SDS011;1552;51.952;7.618;2023-02-28T00:45:30;12.37;;;5.80;;
3083;SDS011;1552;51.952;7.618;2023-02-28T00:47:56;12.73;;;5.70;;
3083;SDS011;1552;51.952;7.618;2023-02-28T00:50:22;8.60;;;5.33;;
3083;SDS011;1552;51.952;7.618;2023-02-28T00:52:50;11.00;;;5.73;;
3083;SDS011;1552;51.952;7.618;2023-02-28T00:55:16;11.70;;;6.00;;
3083;SDS011;1552;51.952;7.618;2023-02-28T00:57:43;11.70;;;5.97;;
3083;SDS011;1552;51.952;7.618;2023-02-28T01:00:10;12.00;;;6.20;;
3083;SDS011;1552;51.952;7.618;2023-02-28T01:02:37;9.87;;;6.87;;
3083;SDS011;1552;51.952;7.618;2023-02-28T01:05:03;16.77;;;6.90;;
3083;SDS011;1552;51.952;7.618;2023-02-28T01:07:29;14.10;;;6.50;;
3083;SDS011;1552;51.952;7.618;2023-02-28T01:09:57;10.50;;;6.97;;
3083;SDS011;1552;51.952;7.618;2023-02-28T01:12:24;15.63;;;6.40;;
3083;SDS011;1552;51.952;7.618;2023-02-28T01:14:50;11.07;;;7.20;;
3083;SDS011;1552;51.952;7.618;2023-02-28T01:17:16;10.47;;;7.13;;
3083;SDS011;1552;51.952;7.618;2023-02-28T01:19:43;8.50;;;6.77;;
3083;SDS011;1552;51.952;7.618;2023-02-28T01:22:09;9.23;;;6.33;;
3083;SDS011;1552;51.952;7.618;2023-02-28T01:24:35;10.17;;;6.30;;
3083;SDS011;1552;51.952;7.618;2023-02-28T01:27:03;17.03;;;7.00;;
3083;SDS011;1552;51.952;7.618;2023-02-28T01:29:29;10.40;;;6.37;;
3083;SDS011;1552;51.952;7.618;2023-02-28T01:31:55;10.87;;;6.30;;
3083;SDS011;1552;51.952;7.618;2023-02-28T01:34:22;11.27;;;6.37;;
3083;SDS011;1552;51.952;7.618;2023-02-28T01:36:48;12.23;;;6.47;;
3083;SDS011;1552;51.952;7.618;2023-02-28T01:39:14;16.07;;;6.80;;
3083;SDS011;1552;51.952;7.618;2023-02-28T01:41:40;8.90;;;5.93;;
3083;SDS011;1552;51.952;7.618;2023-02-28T01:46:50;9.83;;;5.33;;
3083;SDS011;1552;51.952;7.618;2023-02-28T01:49:16;10.17;;;6.03;;
3083;SDS011;1552;51.952;7.618;2023-02-28T01:51:44;8.97;;;5.50;;
3083;SDS011;1552;51.952;7.618;2023-02-28T01:54:16;9.20;;;6.10;;
3083;SDS011;1552;51.952;7.618;2023-02-28T01:56:43;8.90;;;5.50;;
3083;SDS011;1552;51.952;7.618;2023-02-28T01:59:12;8.73;;;5.60;;
3083;SDS011;1552;51.952;7.618;2023-02-28T02:01:40;8.90;;;5.63;;
3083;SDS011;1552;51.952;7.618;2023-02-28T02:04:08;10.20;;;5.50;;
3083;SDS011;1552;51.952;7.618;2023-02-28T02:06:35;10.50;;;6.10;;
3083;SDS011;1552;51.952;7.618;2023-02-28T02:09:03;8.70;;;5.10;;
3083;SDS011;1552;51.952;7.618;2023-02-28T02:11:29;7.97;;;5.17;;
3083;SDS011;1552;51.952;7.618;2023-02-28T02:14:00;11.80;;;5.90;;
3083;SDS011;1552;51.952;7.618;2023-02-28T02:16:34;9.27;;;5.50;;
3083;SDS011;1552;51.952;7.618;2023-02-28T02:19:03;9.57;;;5.50;;
3083;SDS011;1552;51.952;7.618;2023-02-28T02:21:47;10.07;;;6.10;;
3083;SDS011;1552;51.952;7.618;2023-02-28T02:24:24;9.57;;;5.80;;
3083;SDS011;1552;51.952;7.618;2023-02-28T02:26:58;9.17;;;5.50;;
3083;SDS011;1552;51.952;7.618;2023-02-28T02:32:11;9.77;;;5.60;;
3083;SDS011;1552;51.952;7.618;2023-02-28T02:34:46;10.30;;;5.43;;
3083;SDS011;1552;51.952;7.618;2023-02-28T02:37:22;8.43;;;5.43;;
3083;SDS011;1552;51.952;7.618;2023-02-28T02:39:54;9.97;;;5.60;;
3083;SDS011;1552;51.952;7.618;2023-02-28T02:42:23;9.83;;;5.70;;
3083;SDS011;1552;51.952;7.618;2023-02-28T02:44:52;11.10;;;4.93;;
3083;SDS011;1552;51.952;7.618;2023-02-28T02:47:22;10.70;;;5.43;;
3083;SDS011;1552;51.952;7.618;2023-02-28T02:49:52;10.90;;;4.97;;
3083;SDS011;1552;51.952;7.618;2023-02-28T02:52:21;7.80;;;4.83;;
3083;SDS011;1552;51.952;7.618;2023-02-28T02:54:48;7.50;;;5.40;;
3083;SDS011;1552;51.952;7.618;2023-02-28T02:57:17;10.17;;;5.40;;
3083;SDS011;1552;51.952;7.618;2023-02-28T02:59:46;12.27;;;5.20;;
3083;SDS011;1552;51.952;7.618;2023-02-28T03:02:14;9.50;;;5.43;;
3083;SDS011;1552;51.952;7.618;2023-02-28T03:04:42;8.30;;;5.57;;
3083;SDS011;1552;51.952;7.618;2023-02-28T03:07:10;12.87;;;5.47;;
3083;SDS011;1552;51.952;7.618;2023-02-28T03:09:36;7.07;;;4.97;;
3083;SDS011;1552;51.952;7.618;2023-02-28T03:12:03;7.40;;;5.10;;
3083;SDS011;1552;51.952;7.618;2023-02-28T03:14:35;9.93;;;5.27;;
3083;SDS011;1552;51.952;7.618;2023-02-28T03:17:13;9.03;;;6.27;;
3083;SDS011;1552;51.952;7.618;2023-02-28T03:19:47;10.23;;;5.80;;
3083;SDS011;1552;51.952;7.618;2023-02-28T03:22:22;13.67;;;5.70;;
3083;SDS011;1552;51.952;7.618;2023-02-28T03:24:50;9.27;;;5.37;;
3083;SDS011;1552;51.952;7.618;2023-02-28T03:27:21;8.47;;;5.17;;
3083;SDS011;1552;51.952;7.618;2023-02-28T03:29:50;10.10;;;5.37;;
3083;SDS011;1552;51.952;7.618;2023-02-28T03:32:19;7.93;;;4.83;;
3083;SDS011;1552;51.952;7.618;2023-02-28T03:34:48;9.60;;;5.60;;
3083;SDS011;1552;51.952;7.618;2023-02-28T03:37:16;10.43;;;5.87;;
3083;SDS011;1552;51.952;7.618;2023-02-28T03:39:47;9.97;;;5.83;;
3083;SDS011;1552;51.952;7.618;2023-02-28T03:42:15;7.17;;;5.90;;
3083;SDS011;1552;51.952;7.618;2023-02-28T03:44:44;10.03;;;5.60;;
3083;SDS011;1552;51.952;7.618;2023-02-28T03:47:13;10.30;;;6.57;;
3083;SDS011;1552;51.952;7.618;2023-02-28T03:49:41;8.33;;;5.67;;
3083;SDS011;1552;51.952;7.618;2023-02-28T03:52:09;9.57;;;5.73;;
3083;SDS011;1552;51.952;7.618;2023-02-28T03:54:36;12.53;;;5.73;;
3083;SDS011;1552;51.952;7.618;2023-02-28T03:57:05;10.10;;;5.50;;
3083;SDS011;1552;51.952;7.618;2023-02-28T03:59:34;8.57;;;6.10;;
3083;SDS011;1552;51.952;7.618;2023-02-28T04:02:02;11.63;;;6.07;;
3083;SDS011;1552;51.952;7.618;2023-02-28T04:04:29;8.67;;;5.03;;
3083;SDS011;1552;51.952;7.618;2023-02-28T04:07:00;10.57;;;5.00;;
3083;SDS011;1552;51.952;7.618;2023-02-28T04:09:27;9.87;;;6.23;;
3083;SDS011;1552;51.952;7.618;2023-02-28T04:11:53;10.33;;;5.67;;
3083;SDS011;1552;51.952;7.618;2023-02-28T04:14:21;7.97;;;5.50;;
3083;SDS011;1552;51.952;7.618;2023-02-28T04:16:48;8.73;;;5.37;;
3083;SDS011;1552;51.952;7.618;2023-02-28T04:19:16;10.17;;;5.50;;
3083;SDS011;1552;51.952;7.618;2023-02-28T04:21:43;10.13;;;5.73;;
3083;SDS011;1552;51.952;7.618;2023-02-28T04:24:11;7.70;;;5.50;;
3083;SDS011;1552;51.952;7.618;2023-02-28T04:26:39;7.13;;;5.30;;
3083;SDS011;1552;51.952;7.618;2023-02-28T04:29:05;7.33;;;5.43;;
3083;SDS011;1552;51.952;7.618;2023-02-28T04:31:33;7.17;;;5.30;;
3083;SDS011;1552;51.952;7.618;2023-02-28T04:34:00;7.07;;;4.83;;
3083;SDS011;1552;51.952;7.618;2023-02-28T04:36:26;11.37;;;5.10;;
3083;SDS011;1552;51.952;7.618;2023-02-28T04:38:53;8.47;;;4.80;;
3083;SDS011;1552;51.952;7.618;2023-02-28T04:41:19;10.13;;;5.17;;
3083;SDS011;1552;51.952;7.618;2023-02-28T04:43:46;8.30;;;5.10;;
3083;SDS011;1552;51.952;7.618;2023-02-28T04:46:12;11.93;;;4.93;;
3083;SDS011;1552;51.952;7.618;2023-02-28T04:48:40;7.07;;;4.93;;
3083;SDS011;1552;51.952;7.618;2023-02-28T04:51:07;10.37;;;5.97;;
3083;SDS011;1552;51.952;7.618;2023-02-28T04:53:34;7.33;;;4.87;;
3083;SDS011;1552;51.952;7.618;2023-02-28T04:56:00;7.43;;;5.03;;
3083;SDS011;1552;51.952;7.618;2023-02-28T04:58:27;6.97;;;5.03;;
3083;SDS011;1552;51.952;7.618;2023-02-28T05:00:55;9.60;;;5.47;;
3083;SDS011;1552;51.952;7.618;2023-02-28T05:03:26;12.13;;;5.60;;
3083;SDS011;1552;51.952;7.618;2023-02-28T05:05:54;9.00;;;4.80;;
3083;SDS011;1552;51.952;7.618;2023-02-28T05:08:20;10.50;;;6.27;;
3083;SDS011;1552;51.952;7.618;2023-02-28T05:10:47;7.63;;;4.80;;
3083;SDS011;1552;51.952;7.618;2023-02-28T05:13:13;6.93;;;4.27;;
3083;SDS011;1552;51.952;7.618;2023-02-28T05:15:39;6.07;;;4.30;;
3083;SDS011;1552;51.952;7.618;2023-02-28T05:18:05;6.93;;;4.50;;
3083;SDS011;1552;51.952;7.618;2023-02-28T05:20:32;7.10;;;4.50;;
3083;SDS011;1552;51.952;7.618;2023-02-28T05:22:59;8.00;;;4.37;;
3083;SDS011;1552;51.952;7.618;2023-02-28T05:25:26;8.40;;;3.90;;
3083;SDS011;1552;51.952;7.618;2023-02-28T05:27:52;7.50;;;4.27;;
3083;SDS011;1552;51.952;7.618;2023-02-28T05:30:19;6.47;;;3.83;;
3083;SDS011;1552;51.952;7.618;2023-02-28T05:32:49;7.97;;;4.53;;
3083;SDS011;1552;51.952;7.618;2023-02-28T05:35:15;7.93;;;4.17;;
3083;SDS011;1552;51.952;7.618;2023-02-28T05:37:41;7.10;;;4.53;;
3083;SDS011;1552;51.952;7.618;2023-02-28T05:40:10;4.93;;;3.50;;
3083;SDS011;1552;51.952;7.618;2023-02-28T05:42:36;7.20;;;4.07;;
3083;SDS011;1552;51.952;7.618;2023-02-28T05:45:03;8.07;;;3.73;;
3083;SDS011;1552;51.952;7.618;2023-02-28T05:47:29;5.27;;;4.17;;
3083;SDS011;1552;51.952;7.618;2023-02-28T05:49:56;5.37;;;3.63;;
3083;SDS011;1552;51.952;7.618;2023-02-28T05:52:22;6.47;;;3.50;;
3083;SDS011;1552;51.952;7.618;2023-02-28T05:54:48;6.53;;;4.00;;
3083;SDS011;1552;51.952;7.618;2023-02-28T05:57:16;8.67;;;3.83;;
3083;SDS011;1552;51.952;7.618;2023-02-28T05:59:42;5.17;;;3.60;;
3083;SDS011;1552;51.952;7.618;2023-02-28T06:02:10;8.47;;;3.90;;
3083;SDS011;1552;51.952;7.618;2023-02-28T06:04:37;5.30;;;3.60;;
3083;SDS011;1552;51.952;7.618;2023-02-28T06:07:03;8.27;;;3.90;;
3083;SDS011;1552;51.952;7.618;2023-02-28T06:09:29;7.93;;;4.07;;
3083;SDS011;1552;51.952;7.618;2023-02-28T06:11:57;8.07;;;4.30;;
3083;SDS011;1552;51.952;7.618;2023-02-28T06:14:24;20.10;;;8.07;;
3083;SDS011;1552;51.952;7.618;2023-02-28T06:16:51;11.30;;;5.17;;
3083;SDS011;1552;51.952;7.618;2023-02-28T06:19:17;8.90;;;4.77;;
3083;SDS011;1552;51.952;7.618;2023-02-28T06:21:44;10.00;;;5.07;;
3083;SDS011;1552;51.952;7.618;2023-02-28T06:24:10;10.57;;;4.97;;
3083;SDS011;1552;51.952;7.618;2023-02-28T06:26:36;10.03;;;4.87;;
3083;SDS011;1552;51.952;7.618;2023-02-28T06:29:03;7.70;;;5.30;;
3083;SDS011;1552;51.952;7.618;2023-02-28T06:31:30;8.00;;;4.80;;
3083;SDS011;1552;51.952;7.618;2023-02-28T06:33:57;6.53;;;5.10;;
3083;SDS011;1552;51.952;7.618;2023-02-28T06:36:23;8.10;;;5.30;;
3083;SDS011;1552;51.952;7.618;2023-02-28T06:38:49;13.53;;;5.50;;
3083;SDS011;1552;51.952;7.618;2023-02-28T06:41:19;9.73;;;5.27;;
3083;SDS011;1552;51.952;7.618;2023-02-28T06:43:45;9.83;;;6.07;;
3083;SDS011;1552;51.952;7.618;2023-02-28T06:46:12;10.13;;;6.77;;
3083;SDS011;1552;51.952;7.618;2023-02-28T06:48:40;9.97;;;6.53;;
3083;SDS011;1552;51.952;7.618;2023-02-28T06:51:07;14.33;;;6.60;;
3083;SDS011;1552;51.952;7.618;2023-02-28T06:53:34;11.27;;;6.60;;
3083;SDS011;1552;51.952;7.618;2023-02-28T06:56:03;9.30;;;6.40;;
3083;SDS011;1552;51.952;7.618;2023-02-28T06:58:30;10.83;;;6.90;;
3083;SDS011;1552;51.952;7.618;2023-02-28T07:00:56;11.70;;;7.40;;
3083;SDS011;1552;51.952;7.618;2023-02-28T07:03:23;16.20;;;7.30;;
3083;SDS011;1552;51.952;7.618;2023-02-28T07:05:50;12.17;;;7.43;;
3083;SDS011;1552;51.952;7.618;2023-02-28T07:08:17;15.87;;;8.23;;
3083;SDS011;1552;51.952;7.618;2023-02-28T07:10:43;15.00;;;8.23;;
3083;SDS011;1552;51.952;7.618;2023-02-28T07:13:10;12.97;;;7.67;;
3083;SDS011;1552;51.952;7.618;2023-02-28T07:15:37;14.13;;;6.83;;
3083;SDS011;1552;51.952;7.618;2023-02-28T07:18:03;13.50;;;7.10;;
3083;SDS011;1552;51.952;7.618;2023-02-28T07:20:30;24.27;;;7.40;;
3083;SDS011;1552;51.952;7.618;2023-02-28T07:22:58;18.47;;;8.13;;
3083;SDS011;1552;51.952;7.618;2023-02-28T07:25:24;29.70;;;7.80;;
3083;SDS011;1552;51.952;7.618;2023-02-28T07:27:51;25.87;;;8.10;;
3083;SDS011;1552;51.952;7.618;2023-02-28T07:30:17;25.77;;;9.00;;
3083;SDS011;1552;51.952;7.618;2023-02-28T07:32:44;25.80;;;9.47;;
3083;SDS011;1552;51.952;7.618;2023-02-28T07:35:10;16.00;;;7.90;;
3083;SDS011;1552;51.952;7.618;2023-02-28T07:37:37;17.67;;;8.27;;
3083;SDS011;1552;51.952;7.618;2023-02-28T07:40:05;14.37;;;6.70;;
3083;SDS011;1552;51.952;7.618;2023-02-28T07:42:33;12.17;;;7.03;;
3083;SDS011;1552;51.952;7.618;2023-02-28T07:44:59;12.43;;;6.70;;
3083;SDS011;1552;51.952;7.618;2023-02-28T07:47:26;12.30;;;6.33;;
3083;SDS011;1552;51.952;7.618;2023-02-28T07:49:52;15.20;;;6.40;;
3083;SDS011;1552;51.952;7.618;2023-02-28T07:52:18;11.97;;;6.57;;
3083;SDS011;1552;51.952;7.618;2023-02-28T07:54:45;11.83;;;6.57;;
3083;SDS011;1552;51.952;7.618;2023-02-28T07:57:12;11.40;;;6.50;;
3083;SDS011;1552;51.952;7.618;2023-02-28T07:59:39;11.33;;;6.13;;
3083;SDS011;1552;51.952;7.618;2023-02-28T08:02:05;14.50;;;6.10;;
3083;SDS011;1552;51.952;7.618;2023-02-28T08:04:32;9.47;;;5.80;;
3083;SDS011;1552;51.952;7.618;2023-02-28T08:06:59;14.87;;;5.77;;
3083;SDS011;1552;51.952;7.618;2023-02-28T08:09:25;13.37;;;5.73;;
3083;SDS011;1552;51.952;7.618;2023-02-28T08:11:52;7.93;;;4.33;;
3083;SDS011;1552;51.952;7.618;2023-02-28T08:14:19;9.37;;;4.43;;
3083;SDS011;1552;51.952;7.618;2023-02-28T08:16:46;9.83;;;4.47;;
3083;SDS011;1552;51.952;7.618;2023-02-28T08:19:12;9.40;;;4.77;;
3083;SDS011;1552;51.952;7.618;2023-02-28T08:21:38;12.00;;;5.23;;
3083;SDS011;1552;51.952;7.618;2023-02-28T08:24:05;11.93;;;4.40;;
3083;SDS011;1552;51.952;7.618;2023-02-28T08:26:31;7.70;;;4.57;;
3083;SDS011;1552;51.952;7.618;2023-02-28T08:28:57;7.47;;;3.87;;
3083;SDS011;1552;51.952;7.618;2023-02-28T08:31:25;7.10;;;4.37;;
3083;SDS011;1552;51.952;7.618;2023-02-28T08:33:51;9.13;;;4.97;;
3083;SDS011;1552;51.952;7.618;2023-02-28T08:36:20;10.07;;;4.73;;
3083;SDS011;1552;51.952;7.618;2023-02-28T08:38:46;8.23;;;4.27;;
3083;SDS011;1552;51.952;7.618;2023-02-28T08:41:12;7.33;;;3.97;;
3083;SDS011;1552;51.952;7.618;2023-02-28T08:43:39;10.50;;;4.10;;
3083;SDS011;1552;51.952;7.618;2023-02-28T08:46:05;5.77;;;3.20;;
3083;SDS011;1552;51.952;7.618;2023-02-28T08:48:34;5.50;;;3.57;;
3083;SDS011;1552;51.952;7.618;2023-02-28T08:51:04;7.03;;;3.83;;
3083;SDS011;1552;51.952;7.618;2023-02-28T08:53:30;9.17;;;3.13;;
3083;SDS011;1552;51.952;7.618;2023-02-28T08:55:58;6.03;;;3.50;;
3083;SDS011;1552;51.952;7.618;2023-02-28T08:58:24;4.27;;;2.53;;
3083;SDS011;1552;51.952;7.618;2023-02-28T09:00:51;8.53;;;3.70;;
3083;SDS011;1552;51.952;7.618;2023-02-28T09:03:17;3.90;;;2.50;;
3083;SDS011;1552;51.952;7.618;2023-02-28T09:05:52;4.17;;;2.23;;
3083;SDS011;1552;51.952;7.618;2023-02-28T09:08:18;5.67;;;2.67;;
3083;SDS011;1552;51.952;7.618;2023-02-28T09:10:45;8.07;;;2.90;;
3083;SDS011;1552;51.952;7.618;2023-02-28T09:13:12;3.47;;;2.20;;
3083;SDS011;1552;51.952;7.618;2023-02-28T09:15:38;3.00;;;2.43;;
3083;SDS011;1552;51.952;7.618;2023-02-28T09:18:04;4.67;;;2.40;;
3083;SDS011;1552;51.952;7.618;2023-02-28T09:20:31;6.23;;;2.70;;
3083;SDS011;1552;51.952;7.618;2023-02-28T09:22:59;3.03;;;2.10;;
3083;SDS011;1552;51.952;7.618;2023-02-28T09:25:25;6.23;;;2.53;;
3083;SDS011;1552;51.952;7.618;2023-02-28T09:27:51;6.20;;;2.27;;
3083;SDS011;1552;51.952;7.618;2023-02-28T09:30:18;3.70;;;2.00;;
3083;SDS011;1552;51.952;7.618;2023-02-28T09:32:44;6.00;;;2.57;;
3083;SDS011;1552;51.952;7.618;2023-02-28T09:35:16;5.73;;;1.90;;
3083;SDS011;1552;51.952;7.618;2023-02-28T09:37:43;4.83;;;2.00;;
3083;SDS011;1552;51.952;7.618;2023-02-28T09:40:11;3.00;;;1.77;;
3083;SDS011;1552;51.952;7.618;2023-02-28T09:42:38;3.13;;;2.27;;
3083;SDS011;1552;51.952;7.618;2023-02-28T09:45:06;3.03;;;1.70;;
3083;SDS011;1552;51.952;7.618;2023-02-28T09:47:38;5.33;;;2.00;;
3083;SDS011;1552;51.952;7.618;2023-02-28T09:50:09;3.60;;;1.87;;
3083;SDS011;1552;51.952;7.618;2023-02-28T09:52:39;3.03;;;1.50;;
3083;SDS011;1552;51.952;7.618;2023-02-28T09:55:12;3.20;;;1.83;;
3083;SDS011;1552;51.952;7.618;2023-02-28T09:57:44;3.43;;;1.80;;
3083;SDS011;1552;51.952;7.618;2023-02-28T10:00:13;2.60;;;1.60;;
3083;SDS011;1552;51.952;7.618;2023-02-28T10:02:46;1.93;;;1.30;;
3083;SDS011;1552;51.952;7.618;2023-02-28T10:05:15;1.73;;;1.37;;
3083;SDS011;1552;51.952;7.618;2023-02-28T10:07:47;4.17;;;2.17;;
3083;SDS011;1552;51.952;7.618;2023-02-28T10:10:18;2.63;;;1.37;;
3083;SDS011;1552;51.952;7.618;2023-02-28T10:12:48;1.57;;;1.40;;
3083;SDS011;1552;51.952;7.618;2023-02-28T10:15:17;2.80;;;1.47;;
3083;SDS011;1552;51.952;7.618;2023-02-28T10:17:44;4.30;;;1.30;;
3083;SDS011;1552;51.952;7.618;2023-02-28T10:20:14;1.80;;;1.70;;
3083;SDS011;1552;51.952;7.618;2023-02-28T10:22:49;2.20;;;1.67;;
3083;SDS011;1552;51.952;7.618;2023-02-28T10:25:18;1.73;;;1.60;;
3083;SDS011;1552;51.952;7.618;2023-02-28T10:27:44;1.37;;;1.20;;
3083;SDS011;1552;51.952;7.618;2023-02-28T10:30:12;4.10;;;1.60;;
3083;SDS011;1552;51.952;7.618;2023-02-28T10:32:39;2.60;;;1.43;;
3083;SDS011;1552;51.952;7.618;2023-02-28T10:35:10;4.40;;;1.93;;
3083;SDS011;1552;51.952;7.618;2023-02-28T10:37:37;3.80;;;2.10;;
3083;SDS011;1552;51.952;7.618;2023-02-28T10:40:04;4.47;;;2.10;;
3083;SDS011;1552;51.952;7.618;2023-02-28T10:42:31;1.80;;;1.70;;
3083;SDS011;1552;51.952;7.618;2023-02-28T10:45:06;4.23;;;2.23;;
3083;SDS011;1552;51.952;7.618;2023-02-28T10:47:38;5.10;;;1.90;;
3083;SDS011;1552;51.952;7.618;2023-02-28T10:50:22;6.13;;;1.83;;
3083;SDS011;1552;51.952;7.618;2023-02-28T10:52:52;3.00;;;1.57;;
3083;SDS011;1552;51.952;7.618;2023-02-28T10:55:20;4.93;;;1.70;;
3083;SDS011;1552;51.952;7.618;2023-02-28T10:57:47;3.23;;;1.60;;
3083;SDS011;1552;51.952;7.618;2023-02-28T11:00:15;4.30;;;1.80;;
3083;SDS011;1552;51.952;7.618;2023-02-28T11:02:45;4.17;;;1.67;;
3083;SDS011;1552;51.952;7.618;2023-02-28T11:05:28;4.73;;;2.23;;
3083;SDS011;1552;51.952;7.618;2023-02-28T11:07:55;3.53;;;2.00;;
3083;SDS011;1552;51.952;7.618;2023-02-28T11:10:24;3.10;;;2.00;;
3083;SDS011;1552;51.952;7.618;2023-02-28T11:12:53;3.57;;;2.20;;
3083;SDS011;1552;51.952;7.618;2023-02-28T11:15:21;2.37;;;2.00;;
3083;SDS011;1552;51.952;7.618;2023-02-28T11:17:54;2.50;;;1.97;;
3083;SDS011;1552;51.952;7.618;2023-02-28T11:20:21;3.43;;;1.83;;
3083;SDS011;1552;51.952;7.618;2023-02-28T11:22:49;3.77;;;1.93;;
3083;SDS011;1552;51.952;7.618;2023-02-28T11:25:19;2.63;;;1.77;;
3083;SDS011;1552;51.952;7.618;2023-02-28T11:27:47;5.33;;;2.40;;
3083;SDS011;1552;51.952;7.618;2023-02-28T11:33:00;3.87;;;2.10;;
3083;SDS011;1552;51.952;7.618;2023-02-28T11:35:27;5.13;;;2.30;;
3083;SDS011;1552;51.952;7.618;2023-02-28T11:37:55;3.10;;;1.87;;
3083;SDS011;1552;51.952;7.618;2023-02-28T11:40:23;3.07;;;2.37;;
3083;SDS011;1552;51.952;7.618;2023-02-28T11:42:54;2.20;;;2.00;;
3083;SDS011;1552;51.952;7.618;2023-02-28T11:45:28;4.10;;;2.53;;
3083;SDS011;1552;51.952;7.618;2023-02-28T11:48:01;5.10;;;2.33;;
3083;SDS011;1552;51.952;7.618;2023-02-28T11:50:36;3.00;;;2.00;;
3083;SDS011;1552;51.952;7.618;2023-02-28T11:53:10;2.27;;;1.73;;
3083;SDS011;1552;51.952;7.618;2023-02-28T11:55:37;2.10;;;1.80;;
3083;SDS011;1552;51.952;7.618;2023-02-28T11:58:17;4.33;;;2.33;;
3083;SDS011;1552;51.952;7.618;2023-02-28T12:00:50;2.33;;;1.60;;
3083;SDS011;1552;51.952;7.618;2023-02-28T12:03:25;2.10;;;1.87;;
3083;SDS011;1552;51.952;7.618;2023-02-28T12:05:54;4.80;;;2.13;;
3083;SDS011;1552;51.952;7.618;2023-02-28T12:08:26;5.13;;;1.73;;
3083;SDS011;1552;51.952;7.618;2023-02-28T12:11:01;2.33;;;1.80;;
3083;SDS011;1552;51.952;7.618;2023-02-28T12:13:34;4.00;;;2.03;;
3083;SDS011;1552;51.952;7.618;2023-02-28T12:16:20;4.57;;;2.03;;
3083;SDS011;1552;51.952;7.618;2023-02-28T12:18:55;3.50;;;2.40;;
3083;SDS011;1552;51.952;7.618;2023-02-28T12:21:26;4.40;;;2.60;;
3083;SDS011;1552;51.952;7.618;2023-02-28T12:23:58;2.80;;;2.00;;
3083;SDS011;1552;51.952;7.618;2023-02-28T12:26:29;5.37;;;3.00;;
3083;SDS011;1552;51.952;7.618;2023-02-28T12:28:59;4.13;;;2.40;;
3083;SDS011;1552;51.952;7.618;2023-02-28T12:31:27;5.90;;;3.50;;
3083;SDS011;1552;51.952;7.618;2023-02-28T12:33:59;4.73;;;2.30;;
3083;SDS011;1552;51.952;7.618;2023-02-28T12:36:27;5.83;;;3.50;;
3083;SDS011;1552;51.952;7.618;2023-02-28T12:38:54;7.10;;;3.13;;
3083;SDS011;1552;51.952;7.618;2023-02-28T12:41:22;5.10;;;2.53;;
3083;SDS011;1552;51.952;7.618;2023-02-28T12:43:52;3.37;;;2.90;;
3083;SDS011;1552;51.952;7.618;2023-02-28T12:46:21;4.57;;;3.10;;
3083;SDS011;1552;51.952;7.618;2023-02-28T12:48:50;3.20;;;2.60;;
3083;SDS011;1552;51.952;7.618;2023-02-28T12:51:19;3.07;;;2.50;;
3083;SDS011;1552;51.952;7.618;2023-02-28T12:53:52;4.67;;;3.23;;
3083;SDS011;1552;51.952;7.618;2023-02-28T12:56:21;5.93;;;2.67;;
3083;SDS011;1552;51.952;7.618;2023-02-28T12:58:51;6.17;;;2.47;;
3083;SDS011;1552;51.952;7.618;2023-02-28T13:01:39;2.43;;;2.07;;
3083;SDS011;1552;51.952;7.618;2023-02-28T13:04:14;4.50;;;2.27;;
3083;SDS011;1552;51.952;7.618;2023-02-28T13:06:53;3.40;;;2.33;;
3083;SDS011;1552;51.952;7.618;2023-02-28T13:09:23;3.23;;;2.27;;
3083;SDS011;1552;51.952;7.618;2023-02-28T13:11:50;2.80;;;2.10;;
3083;SDS011;1552;51.952;7.618;2023-02-28T13:14:22;3.30;;;2.63;;
3083;SDS011;1552;51.952;7.618;2023-02-28T13:16:56;2.43;;;2.20;;
3083;SDS011;1552;51.952;7.618;2023-02-28T13:19:23;5.23;;;2.47;;
3083;SDS011;1552;51.952;7.618;2023-02-28T13:21:50;3.53;;;2.57;;
3083;SDS011;1552;51.952;7.618;2023-02-28T13:24:39;5.07;;;2.47;;
3083;SDS011;1552;51.952;7.618;2023-02-28T13:29:59;5.00;;;2.70;;
3083;SDS011;1552;51.952;7.618;2023-02-28T13:32:35;3.70;;;2.30;;
3083;SDS011;1552;51.952;7.618;2023-02-28T13:40:47;2.77;;;2.03;;
3083;SDS011;1552;51.952;7.618;2023-02-28T13:43:13;3.87;;;2.33;;
3083;SDS011;1552;51.952;7.618;2023-02-28T13:45:54;4.63;;;2.40;;
3083;SDS011;1552;51.952;7.618;2023-02-28T13:48:29;4.10;;;2.03;;
3083;SDS011;1552;51.952;7.618;2023-02-28T13:50:55;4.10;;;2.40;;
3083;SDS011;1552;51.952;7.618;2023-02-28T13:53:31;4.00;;;2.47;;
3083;SDS011;1552;51.952;7.618;2023-02-28T13:56:03;3.47;;;2.30;;
3083;SDS011;1552;51.952;7.618;2023-02-28T13:58:44;3.03;;;2.23;;
3083;SDS011;1552;51.952;7.618;2023-02-28T14:01:15;3.33;;;2.30;;
3083;SDS011;1552;51.952;7.618;2023-02-28T14:06:28;4.73;;;2.40;;
3083;SDS011;1552;51.952;7.618;2023-02-28T14:08:58;4.70;;;2.20;;
3083;SDS011;1552;51.952;7.618;2023-02-28T14:11:31;5.13;;;3.13;;
3083;SDS011;1552;51.952;7.618;2023-02-28T14:13:57;3.97;;;2.37;;
3083;SDS011;1552;51.952;7.618;2023-02-28T14:16:25;5.97;;;2.30;;
3083;SDS011;1552;51.952;7.618;2023-02-28T14:18:55;2.40;;;2.07;;
3083;SDS011;1552;51.952;7.618;2023-02-28T14:21:22;4.47;;;2.63;;
3083;SDS011;1552;51.952;7.618;2023-02-28T14:29:38;7.10;;;3.17;;
3083;SDS011;1552;51.952;7.618;2023-02-28T14:32:11;5.50;;;2.37;;
3083;SDS011;1552;51.952;7.618;2023-02-28T14:34:41;6.13;;;2.50;;
3083;SDS011;1552;51.952;7.618;2023-02-28T14:37:10;2.70;;;2.07;;
3083;SDS011;1552;51.952;7.618;2023-02-28T14:39:40;5.23;;;2.47;;
3083;SDS011;1552;51.952;7.618;2023-02-28T14:44:54;6.13;;;2.97;;
3083;SDS011;1552;51.952;7.618;2023-02-28T14:47:21;6.00;;;3.17;;
3083;SDS011;1552;51.952;7.618;2023-02-28T14:49:49;5.57;;;3.00;;
3083;SDS011;1552;51.952;7.618;2023-02-28T14:52:17;3.47;;;2.60;;
3083;SDS011;1552;51.952;7.618;2023-02-28T14:54:45;5.17;;;2.73;;
3083;SDS011;1552;51.952;7.618;2023-02-28T14:57:20;4.03;;;2.63;;
3083;SDS011;1552;51.952;7.618;2023-02-28T14:59:56;3.23;;;2.37;;
3083;SDS011;1552;51.952;7.618;2023-02-28T15:02:24;5.10;;;2.40;;
3083;SDS011;1552;51.952;7.618;2023-02-28T15:04:55;3.77;;;2.90;;
3083;SDS011;1552;51.952;7.618;2023-02-28T15:07:21;3.50;;;2.73;;
3083;SDS011;1552;51.952;7.618;2023-02-28T15:10:06;3.10;;;2.80;;
3083;SDS011;1552;51.952;7.618;2023-02-28T15:12:32;3.37;;;2.67;;
3083;SDS011;1552;51.952;7.618;2023-02-28T15:14:58;3.90;;;2.60;;
3083;SDS011;1552;51.952;7.618;2023-02-28T15:17:26;4.43;;;2.80;;
3083;SDS011;1552;51.952;7.618;2023-02-28T15:19:52;4.90;;;3.00;;
3083;SDS011;1552;51.952;7.618;2023-02-28T15:22:19;7.47;;;3.80;;
3083;SDS011;1552;51.952;7.618;2023-02-28T15:24:48;6.30;;;3.30;;
3083;SDS011;1552;51.952;7.618;2023-02-28T15:27:20;6.27;;;3.30;;
3083;SDS011;1552;51.952;7.618;2023-02-28T15:29:48;5.80;;;2.90;;
3083;SDS011;1552;51.952;7.618;2023-02-28T15:32:21;3.97;;;2.43;;
3083;SDS011;1552;51.952;7.618;2023-02-28T15:34:51;3.40;;;2.40;;
3083;SDS011;1552;51.952;7.618;2023-02-28T15:37:29;5.17;;;2.57;;
3083;SDS011;1552;51.952;7.618;2023-02-28T15:39:57;5.73;;;2.40;;
3083;SDS011;1552;51.952;7.618;2023-02-28T15:42:28;6.37;;;2.80;;
3083;SDS011;1552;51.952;7.618;2023-02-28T15:44:56;4.67;;;2.67;;
3083;SDS011;1552;51.952;7.618;2023-02-28T15:47:25;3.30;;;2.47;;
3083;SDS011;1552;51.952;7.618;2023-02-28T15:49:54;3.70;;;2.20;;